Time;durP1;ratioP1;P1;durP2;ratioP2;P2;SDS_P1;SDS_P2;PMS_P1;PMS_P2;Temp;Humidity;BMP_temperature;BMP_pressure;BME280_temperature;BME280_humidity;BME280_pressure;Samples;Min_cycle;Max_cycle;Signal;HPM_P1;HPM_P2
2021/01/24 00:00:08;;;;;;;49.88;22.75;;;;;;;9.56;57.52;93673.97;5405555;23;20051;-86
2021/01/24 00:02:39;;;;;;;62.10;28.08;;;;;;;9.63;57.89;93664.94;4941532;29;20070;-87
2021/01/24 00:05:06;;;;;;;53.50;26.48;;;;;;;9.65;57.24;93649.09;4951402;29;20059;-88
2021/01/24 00:11:10;;;;;;;21.05;12.95;;;;;;;9.82;56.66;93656.69;4891713;29;20497;-89
2021/01/24 00:27:50;;;;;;;30.98;17.05;;;;;;;9.92;56.04;93674.88;4836994;29;20090;-88
2021/01/24 00:30:17;;;;;;;45.60;21.40;;;;;;;10.02;56.44;93682.72;4845642;29;20212;-85
2021/01/24 00:32:42;;;;;;;34.47;17.48;;;;;;;10.09;55.49;93675.47;4951225;28;20036;-85
2021/01/24 00:35:08;;;;;;;23.65;13.50;;;;;;;10.10;55.54;93674.44;4926392;29;20046;-84
2021/01/24 00:37:34;;;;;;;38.50;16.92;;;;;;;10.01;56.67;93681.16;4950609;29;20038;-84
2021/01/24 00:39:59;;;;;;;24.15;13.07;;;;;;;9.96;57.32;93683.75;4928757;29;20031;-84
2021/01/24 00:42:25;;;;;;;22.10;10.68;;;;;;;9.93;56.74;93673.88;4928269;29;20495;-84
2021/01/24 00:44:50;;;;;;;8.68;5.85;;;;;;;9.90;55.98;93669.16;5005077;23;20043;-83
2021/01/24 00:47:16;;;;;;;5.38;3.90;;;;;;;9.72;56.98;93662.63;4947127;28;20040;-84
2021/01/24 00:49:41;;;;;;;4.75;3.30;;;;;;;9.70;56.77;93669.88;4956783;29;20043;-84
2021/01/24 00:52:07;;;;;;;8.85;4.43;;;;;;;9.67;57.25;93669.63;4939299;29;20032;-83
2021/01/24 00:54:32;;;;;;;3.70;3.35;;;;;;;9.60;56.86;93668.03;4930631;29;20069;-83
2021/01/24 00:56:58;;;;;;;6.03;3.42;;;;;;;9.48;57.40;93680.44;4953618;29;20589;-84
2021/01/24 00:59:24;;;;;;;6.25;3.75;;;;;;;9.41;58.01;93664.28;4954184;29;20032;-83
2021/01/24 01:01:49;;;;;;;7.15;5.82;;;;;;;9.35;57.20;93675.69;4953925;28;20070;-84
2021/01/24 01:04:15;;;;;;;7.72;4.18;;;;;;;9.37;58.62;93660.66;4950975;29;20043;-84
2021/01/24 01:06:40;;;;;;;4.65;3.00;;;;;;;9.40;58.36;93675.72;4940287;28;20027;-84
2021/01/24 01:09:06;;;;;;;16.63;6.32;;;;;;;9.37;59.28;93665.84;4951526;29;20042;-83
2021/01/24 01:11:31;;;;;;;13.52;5.38;;;;;;;9.25;60.39;93657.47;4954384;29;20559;-84
2021/01/24 01:13:57;;;;;;;6.70;3.63;;;;;;;9.30;60.79;93667.88;4930255;29;20110;-83
2021/01/24 01:16:22;;;;;;;5.97;4.03;;;;;;;9.22;60.92;93668.34;4953696;29;20573;-84
2021/01/24 01:18:48;;;;;;;12.45;5.85;;;;;;;9.19;61.76;93653.28;4944632;28;20040;-83
2021/01/24 01:21:13;;;;;;;3.00;2.70;;;;;;;9.14;61.35;93661.06;4971732;28;20031;-83
2021/01/24 01:23:39;;;;;;;8.23;4.57;;;;;;;9.08;62.07;93664.63;4969297;28;20500;-82
2021/01/24 01:26:36;;;;;;;12.30;4.80;;;;;;;9.02;62.10;93664.59;5032161;23;20099;31
2021/01/24 01:29:24;;;;;;;13.52;3.80;;;;;;;9.03;62.25;93663.56;4895666;29;20041;-82
2021/01/24 01:31:50;;;;;;;10.13;3.70;;;;;;;8.95;62.88;93658.88;4854272;29;20133;-82
2021/01/24 01:34:15;;;;;;;6.32;3.78;;;;;;;9.02;62.61;93659.41;4863165;29;20447;-84
2021/01/24 01:36:40;;;;;;;13.93;4.85;;;;;;;8.99;62.61;93646.97;4862133;29;20680;-83
2021/01/24 01:39:06;;;;;;;19.88;5.40;;;;;;;8.95;62.87;93655.50;4860605;29;20105;-84
2021/01/24 01:41:34;;;;;;;8.68;4.78;;;;;;;8.95;62.67;93643.31;4858812;29;20045;-84
2021/01/24 01:44:00;;;;;;;10.68;4.78;;;;;;;8.91;63.26;93621.47;4864422;29;20049;-84
2021/01/24 01:46:26;;;;;;;5.80;3.22;;;;;;;8.84;61.60;93654.63;4866022;29;20037;-84
2021/01/24 01:48:52;;;;;;;14.40;5.03;;;;;;;8.85;63.01;93647.63;4864620;29;20045;-84
2021/01/24 01:51:17;;;;;;;7.43;4.40;;;;;;;8.91;62.84;93651.81;4849614;29;20041;-84
2021/01/24 01:53:44;;;;;;;5.78;3.17;;;;;;;8.92;61.97;93655.97;4879614;29;20553;-83
2021/01/24 01:56:09;;;;;;;3.88;2.90;;;;;;;8.82;61.06;93656.69;4846542;29;20034;-84
2021/01/24 01:58:44;;;;;;;12.13;2.95;;;;;;;8.86;61.45;93681.09;5167617;23;20416;-81
2021/01/24 02:01:47;;;;;;;9.77;4.13;;;;;;;8.86;62.19;93685.50;4934259;29;20471;-83
2021/01/24 02:04:24;;;;;;;10.38;4.55;;;;;;;8.92;61.73;93674.13;4889473;29;20052;-81
2021/01/24 02:07:16;;;;;;;8.98;4.88;;;;;;;8.97;61.96;93687.13;5083920;23;20530;-82
2021/01/24 02:09:45;;;;;;;5.68;3.83;;;;;;;9.02;61.22;93685.34;4968653;28;20054;-81
2021/01/24 02:12:30;;;;;;;7.65;4.10;;;;;;;9.09;60.76;93685.13;4948809;28;20515;-82
2021/01/24 02:15:00;;;;;;;4.35;3.22;;;;;;;9.17;61.04;93681.28;4948894;28;20050;-81
2021/01/24 02:17:26;;;;;;;3.10;2.83;;;;;;;9.12;60.55;93665.72;4931014;28;20101;-83
2021/01/24 02:20:09;;;;;;;7.28;2.70;;;;;;;9.13;60.17;93685.44;4951079;28;20151;-82
2021/01/24 02:22:37;;;;;;;4.25;2.83;;;;;;;9.25;60.45;93678.22;4966848;28;20031;-82
2021/01/24 02:25:24;;;;;;;4.63;3.63;;;;;;;9.32;60.18;93671.00;4967795;28;20038;-82
2021/01/24 02:27:51;;;;;;;6.28;2.53;;;;;;;9.38;59.80;93667.41;4969458;28;20049;-83
2021/01/24 02:30:24;;;;;;;5.85;2.85;;;;;;;9.42;60.08;93668.44;4951987;28;20051;-83
2021/01/24 02:32:55;;;;;;;7.30;3.80;;;;;;;9.45;59.19;93673.16;4936693;28;20039;-83
2021/01/24 02:35:22;;;;;;;4.75;2.85;;;;;;;9.39;59.19;93655.22;4934008;28;20035;-83
2021/01/24 02:37:48;;;;;;;4.28;2.38;;;;;;;9.43;58.84;93651.06;4947358;28;20054;-83
2021/01/24 02:40:13;;;;;;;4.43;2.75;;;;;;;9.52;58.41;93655.53;4934381;28;20483;-82
2021/01/24 02:42:39;;;;;;;3.65;2.17;;;;;;;9.53;58.41;93644.13;4952473;28;20694;-82
2021/01/24 02:45:05;;;;;;;6.30;2.70;;;;;;;9.48;58.33;93657.09;4916733;28;20087;-82
2021/01/24 02:47:30;;;;;;;4.20;2.53;;;;;;;9.50;57.30;93667.97;4967921;28;20101;-82
2021/01/24 02:49:56;;;;;;;6.10;3.65;;;;;;;9.49;56.08;93655.25;4921714;28;20031;-82
2021/01/24 02:52:21;;;;;;;4.45;4.05;;;;;;;9.48;55.34;93661.50;4952431;28;20030;-81
2021/01/24 02:54:47;;;;;;;4.80;2.90;;;;;;;9.42;55.01;93641.72;4946978;28;20051;-80
2021/01/24 02:57:13;;;;;;;4.88;2.58;;;;;;;9.49;54.67;93652.66;4969382;28;20094;-80
2021/01/24 02:59:39;;;;;;;2.95;2.00;;;;;;;9.46;54.68;93646.19;4946272;28;20498;-81
2021/01/24 03:02:11;;;;;;;3.97;3.58;;;;;;;9.46;54.43;93648.78;4951196;28;20120;-81
2021/01/24 03:04:37;;;;;;;7.13;4.57;;;;;;;9.42;54.50;93637.31;4919105;28;20126;-82
2021/01/24 03:07:04;;;;;;;28.77;13.73;;;;;;;9.51;53.52;93629.84;4949425;28;20487;-82
2021/01/24 03:09:29;;;;;;;10.98;5.95;;;;;;;9.58;53.46;93625.19;4918241;28;20058;-82
2021/01/24 03:11:55;;;;;;;9.07;3.70;;;;;;;9.64;53.26;93624.19;4967068;28;20027;-83
2021/01/24 03:14:25;;;;;;;7.40;4.40;;;;;;;9.74;53.00;93618.22;4952667;28;20026;-83
2021/01/24 03:16:51;;;;;;;2.13;1.88;;;;;;;9.75;52.29;93625.75;4919469;28;20058;-82
2021/01/24 03:19:18;;;;;;;1.92;1.70;;;;;;;9.83;51.87;93629.69;4934757;28;20031;-82
2021/01/24 03:21:43;;;;;;;1.90;1.40;;;;;;;9.84;52.11;93649.44;4943990;28;20550;-82
2021/01/24 03:24:09;;;;;;;1.67;1.58;;;;;;;9.87;50.79;93643.72;4949905;28;20043;-82
2021/01/24 03:26:35;;;;;;;2.05;1.50;;;;;;;9.80;51.89;93654.34;4933958;28;20106;-81
2021/01/24 03:29:00;;;;;;;1.60;1.50;;;;;;;9.77;52.30;93651.50;4952599;28;20027;-82
2021/01/24 03:31:26;;;;;;;1.50;1.50;;;;;;;9.65;51.95;93650.91;4951860;28;20042;-82
2021/01/24 03:33:51;;;;;;;3.00;1.48;;;;;;;9.56;51.57;93659.19;4935339;28;20027;-82
2021/01/24 03:36:17;;;;;;;2.40;2.30;;;;;;;9.54;51.84;93650.09;4916551;28;20070;-83
2021/01/24 03:38:42;;;;;;;7.90;2.65;;;;;;;9.53;51.94;93649.31;4932464;28;20027;-82
2021/01/24 03:41:08;;;;;;;3.85;3.00;;;;;;;9.51;52.01;93653.19;4931375;28;20039;-82
2021/01/24 03:43:33;;;;;;;10.88;3.50;;;;;;;9.46;52.03;93653.97;4954562;28;20067;-82
2021/01/24 03:45:59;;;;;;;4.20;3.05;;;;;;;9.43;52.02;93654.44;4946765;28;20545;-82
2021/01/24 03:48:24;;;;;;;5.85;2.70;;;;;;;9.39;52.13;93658.59;4928931;28;20046;-82
2021/01/24 03:50:50;;;;;;;2.47;2.38;;;;;;;9.29;52.11;93659.31;4948091;28;20118;-82
2021/01/24 03:53:15;;;;;;;5.20;2.97;;;;;;;9.17;52.63;93657.94;4912899;28;20032;-83
2021/01/24 03:55:41;;;;;;;3.85;2.63;;;;;;;9.11;52.51;93659.75;4928296;28;20034;-82
2021/01/24 03:58:06;;;;;;;6.30;2.50;;;;;;;9.01;52.68;93655.25;4962802;28;20031;-82
2021/01/24 04:00:32;;;;;;;3.15;2.92;;;;;;;8.85;52.59;93648.41;4964245;28;20684;-82
2021/01/24 04:02:57;;;;;;;4.55;3.45;;;;;;;8.79;52.70;93639.06;4964606;28;20027;-83
2021/01/24 04:05:23;;;;;;;5.32;2.85;;;;;;;8.70;53.43;93635.34;4914823;28;20050;-82
2021/01/24 04:07:49;;;;;;;6.07;2.83;;;;;;;8.55;53.50;93648.19;4946833;28;20102;-83
2021/01/24 04:10:14;;;;;;;8.32;4.20;;;;;;;8.33;53.85;93654.22;4918928;28;20043;-83
2021/01/24 04:12:39;;;;;;;7.68;3.10;;;;;;;8.33;54.05;93668.97;4935650;28;20027;-84
2021/01/24 04:15:06;;;;;;;4.03;3.33;;;;;;;8.26;54.20;93669.16;4950832;28;20082;-83
2021/01/24 04:17:31;;;;;;;3.10;2.85;;;;;;;8.17;54.77;93665.44;4949022;28;20182;-83
2021/01/24 04:19:57;;;;;;;7.93;3.60;;;;;;;8.11;54.67;93671.59;4950602;28;20051;-82
2021/01/24 04:22:22;;;;;;;6.53;3.15;;;;;;;8.13;54.19;93672.13;4933756;28;20024;-83
2021/01/24 04:24:48;;;;;;;6.22;2.85;;;;;;;8.12;54.25;93678.31;4930380;28;20027;-82
2021/01/24 04:27:13;;;;;;;4.47;2.60;;;;;;;8.16;54.23;93674.25;4932801;28;20031;-83
2021/01/24 04:29:39;;;;;;;4.90;2.40;;;;;;;8.16;54.53;93671.66;4948512;28;20058;-83
2021/01/24 04:32:04;;;;;;;3.95;2.78;;;;;;;8.15;54.06;93675.28;4939281;28;20039;-83
2021/01/24 04:34:30;;;;;;;5.22;3.08;;;;;;;8.17;54.81;93675.81;4950002;28;20066;-82
2021/01/24 04:36:55;;;;;;;6.28;3.00;;;;;;;8.23;54.61;93677.41;4964947;28;20551;-83
2021/01/24 04:39:27;;;;;;;4.82;3.28;;;;;;;8.21;53.91;93679.47;4948055;28;20099;-83
2021/01/24 04:41:52;;;;;;;7.53;3.50;;;;;;;8.27;53.86;93691.44;4963388;28;20537;-83
2021/01/24 04:44:18;;;;;;;3.67;3.05;;;;;;;8.19;53.98;93684.09;4915240;28;20035;-83
2021/01/24 04:46:45;;;;;;;4.43;3.20;;;;;;;8.20;54.29;93698.63;4930533;28;20038;-85
2021/01/24 04:49:10;;;;;;;6.53;2.80;;;;;;;8.18;54.06;93694.72;4925274;28;20035;-83
2021/01/24 04:51:35;;;;;;;4.07;2.85;;;;;;;8.24;53.52;93698.91;4949913;28;20042;-83
2021/01/24 04:54:01;;;;;;;8.63;3.30;;;;;;;8.30;53.62;93705.72;4948633;28;20031;-84
2021/01/24 04:56:27;;;;;;;5.72;3.33;;;;;;;8.31;53.08;93709.88;4941504;28;20042;-83
2021/01/24 04:58:53;;;;;;;6.40;4.20;;;;;;;8.33;52.59;93706.00;4949847;28;20523;-82
2021/01/24 05:01:18;;;;;;;7.53;4.57;;;;;;;8.18;53.35;93705.84;4949413;28;20058;-82
2021/01/24 05:03:44;;;;;;;12.90;6.88;;;;;;;8.22;52.76;93714.69;4930871;28;20090;-83
2021/01/24 05:06:09;;;;;;;14.60;6.80;;;;;;;8.15;53.11;93710.75;4931710;28;20482;-83
2021/01/24 05:08:35;;;;;;;16.58;7.80;;;;;;;8.16;53.67;93710.50;4932800;28;20699;-83
2021/01/24 05:11:07;;;;;;;12.35;6.05;;;;;;;8.05;53.24;93717.38;4950736;28;20070;-82
2021/01/24 05:13:33;;;;;;;;;;;;;;;7.93;53.23;93724.47;4941779;28;20113;-83
2021/01/24 05:15:58;;;;;;;8.90;5.30;;;;;;;7.90;53.25;93724.19;4970135;28;19953;-83
2021/01/24 05:18:27;;;;;;;10.02;5.75;;;;;;;7.95;53.14;93721.63;4944555;28;20015;-83
2021/01/24 05:20:53;;;;;;;28.85;11.20;;;;;;;7.97;52.99;93725.56;4941527;28;20039;-83
2021/01/24 05:23:22;;;;;;;27.55;13.35;;;;;;;7.98;52.69;93721.19;4931027;28;20038;-82
2021/01/24 05:25:47;;;;;;;24.25;12.57;;;;;;;7.98;52.61;93710.81;4930846;28;20035;-82
2021/01/24 05:29:15;;;;;;;12.77;6.80;;;;;;;7.96;52.23;93707.66;4914335;28;20043;-82
2021/01/24 05:31:44;;;;;;;9.55;5.95;;;;;;;8.07;51.75;93724.88;4868323;29;20143;-82
2021/01/24 05:34:10;;;;;;;10.50;5.63;;;;;;;8.07;52.41;93714.53;4930411;28;20070;-83
2021/01/24 05:36:42;;;;;;;8.68;3.47;;;;;;;7.92;51.12;93716.94;4931932;28;20476;-83
2021/01/24 05:39:08;;;;;;;8.45;3.70;;;;;;;7.95;50.12;93708.69;4948454;28;20042;-82
2021/01/24 05:41:34;;;;;;;9.05;3.80;;;;;;;7.91;49.42;93705.03;4946216;28;20027;-83
2021/01/24 05:43:59;;;;;;;7.60;4.65;;;;;;;7.79;49.41;93716.28;4932181;28;20217;-84
2021/01/24 05:46:31;;;;;;;8.65;5.07;;;;;;;7.82;49.41;93700.28;4916580;28;20047;-83
2021/01/24 05:48:56;;;;;;;5.45;3.30;;;;;;;7.82;49.22;93708.06;5751807;23;20039;-82
2021/01/24 05:51:22;;;;;;;4.65;4.15;;;;;;;7.87;49.78;93715.09;4944503;29;20035;-83
2021/01/24 05:53:48;;;;;;;3.88;3.10;;;;;;;7.82;49.28;93695.13;4944826;29;20035;-82
2021/01/24 06:02:27;;;;;;;5.20;2.85;;;;;;;7.80;49.08;93717.84;4969523;28;20182;-82
2021/01/24 06:04:53;;;;;;;10.63;3.75;;;;;;;8.02;49.47;93730.81;4974610;28;20078;-81
2021/01/24 06:07:19;;;;;;;7.80;3.45;;;;;;;8.16;48.79;93743.38;4976281;28;20054;-81
2021/01/24 06:09:44;;;;;;;7.20;4.57;;;;;;;8.26;49.34;93752.03;4959605;28;20034;-82
2021/01/24 06:12:10;;;;;;;12.77;5.05;;;;;;;8.30;49.65;93745.34;4956882;28;20026;-82
2021/01/24 06:14:38;;;;;;;10.10;4.95;;;;;;;8.34;49.91;93756.81;4949285;28;20113;-82
2021/01/24 06:17:29;;;;;;;10.68;4.25;;;;;;;8.45;50.25;93772.44;4949383;28;20418;-83
2021/01/24 06:20:01;;;;;;;8.48;5.43;;;;;;;8.57;50.27;93788.63;4940796;28;20510;-83
2021/01/24 06:22:29;;;;;;;;;;;;;;;8.68;50.06;93780.72;4956343;28;20121;-83
2021/01/24 06:25:35;;;;;;;18.42;10.63;;;;;;;8.88;48.66;93777.53;4955675;28;19918;-83
2021/01/24 06:28:07;;;;;;;21.45;8.00;;;;;;;9.03;48.67;93785.44;4974156;28;20090;-82
2021/01/24 06:30:33;;;;;;;16.73;9.43;;;;;;;9.24;48.75;93770.03;4945404;28;20039;-83
2021/01/24 06:33:14;;;;;;;19.55;8.02;;;;;;;9.62;47.54;93777.56;4943717;28;20039;-83
2021/01/24 06:35:47;;;;;;;21.17;10.27;;;;;;;9.90;46.77;93783.41;4960858;28;20049;-82
2021/01/24 06:38:33;;;;;;;11.40;6.88;;;;;;;9.99;46.35;93804.50;4960665;28;20027;-81
2021/01/24 06:41:00;;;;;;;10.57;6.18;;;;;;;9.90;47.42;93804.19;4980325;28;20043;-83
2021/01/24 06:43:48;;;;;;;14.90;7.93;;;;;;;9.94;47.54;93807.88;4937704;28;20086;-83
2021/01/24 06:46:26;;;;;;;14.05;7.45;;;;;;;9.98;47.54;93785.56;4949585;28;20045;-83
2021/01/24 06:48:52;;;;;;;10.52;7.15;;;;;;;9.94;45.95;93794.88;4975149;28;20035;-82
2021/01/24 06:51:33;;;;;;;7.38;5.50;;;;;;;9.98;45.57;93789.97;4948558;28;20229;-83
2021/01/24 06:54:14;;;;;;;9.00;6.43;;;;;;;10.12;45.64;93807.44;4944492;28;20039;-83
2021/01/24 06:56:41;;;;;;;9.82;5.72;;;;;;;10.13;45.73;93803.03;4975988;28;20038;-82
2021/01/24 06:59:06;;;;;;;9.45;5.68;;;;;;;10.30;45.26;93814.03;4941871;28;20640;-82
2021/01/24 07:01:42;;;;;;;10.82;6.32;;;;;;;10.68;45.03;93810.25;4928979;28;20104;-82
2021/01/24 07:04:18;;;;;;;9.35;5.43;;;;;;;11.08;43.81;93829.59;4961540;28;20045;-83
2021/01/24 07:06:49;;;;;;;8.98;5.70;;;;;;;11.49;43.01;93832.97;4978649;28;20035;-84
2021/01/24 07:09:24;;;;;;;24.07;11.53;;;;;;;11.92;42.72;93831.69;4943171;28;20039;-82
2021/01/24 07:11:56;;;;;;;40.53;17.85;;;;;;;12.19;42.52;93812.31;4982924;28;20111;-82
2021/01/24 07:14:37;;;;;;;41.80;21.95;;;;;;;12.38;42.01;93821.13;4963779;28;20094;-83
2021/01/24 07:17:09;;;;;;;59.83;29.77;;;;;;;12.42;41.98;93818.75;4982387;28;20090;-83
2021/01/24 07:19:38;;;;;;;55.50;29.92;;;;;;;12.63;42.25;93822.84;4976612;28;20046;-83
2021/01/24 07:22:06;;;;;;;45.75;24.15;;;;;;;12.76;41.40;93811.03;4995216;28;20030;-83
2021/01/24 07:24:32;;;;;;;41.90;22.02;;;;;;;12.93;40.27;93814.06;4952276;28;20533;-84
2021/01/24 07:29:30;;;;;;;18.92;11.23;;;;;;;12.93;37.45;93814.06;4969420;28;20059;-83
2021/01/24 07:34:30;;;;;;;16.45;10.10;;;;;;;12.90;38.08;93814.63;5069179;23;20055;-83
2021/01/24 07:36:56;;;;;;;16.10;7.97;;;;;;;12.86;38.23;93811.00;4945445;28;20043;-83
2021/01/24 07:39:25;;;;;;;43.83;8.50;;;;;;;12.96;37.69;93820.56;4951139;28;20035;-83
2021/01/24 07:41:51;;;;;;;21.38;7.10;;;;;;;13.20;37.32;93840.56;4951957;28;20036;-83
2021/01/24 07:44:28;;;;;;;21.58;8.25;;;;;;;13.15;36.80;93817.06;4947573;28;20042;-80
2021/01/24 07:46:57;;;;;;;16.85;9.23;;;;;;;13.24;36.51;93826.97;4969090;28;20038;-83
2021/01/24 07:49:23;;;;;;;15.07;9.00;;;;;;;13.42;36.69;93852.41;4967646;28;20101;-82
2021/01/24 07:51:48;;;;;;;19.83;7.45;;;;;;;13.58;37.81;93851.25;4918591;28;20629;-82
2021/01/24 07:54:16;;;;;;;18.23;7.57;;;;;;;13.74;38.48;93854.53;4951265;28;20035;-83
2021/01/24 07:56:42;;;;;;;14.95;7.63;;;;;;;13.84;38.41;93856.28;4925577;28;20030;-83
2021/01/24 07:59:11;;;;;;;22.63;10.90;;;;;;;13.91;36.44;93857.50;4917105;28;20106;-83
2021/01/24 08:01:36;;;;;;;22.02;11.40;;;;;;;13.88;35.40;93846.81;4938824;28;20043;-83
2021/01/24 08:04:05;;;;;;;25.70;13.85;;;;;;;13.81;35.84;93868.81;4924875;28;20042;-83
2021/01/24 08:06:38;;;;;;;16.00;9.32;;;;;;;14.04;37.04;93866.53;4949518;28;20074;-85
2021/01/24 08:09:04;;;;;;;14.50;7.82;;;;;;;14.20;36.67;93865.34;4956346;28;20081;-84
2021/01/24 08:11:34;;;;;;;13.68;6.20;;;;;;;14.08;37.21;93863.09;4938222;28;20059;-82
2021/01/24 08:13:59;;;;;;;14.00;7.05;;;;;;;14.17;36.92;93872.97;4949242;28;20063;-82
2021/01/24 08:16:44;;;;;;;11.93;7.53;;;;;;;14.19;36.63;93874.25;4970796;28;20043;-84
2021/01/24 08:19:12;;;;;;;13.90;6.72;;;;;;;14.26;37.17;93869.44;4959981;28;20018;-83
2021/01/24 08:24:06;;;;;;;9.88;5.55;;;;;;;14.54;35.51;93874.94;4985271;23;20047;-81
2021/01/24 08:26:32;;;;;;;10.27;3.80;;;;;;;14.41;33.49;93878.97;4962174;28;20041;-82
2021/01/24 08:28:58;;;;;;;6.00;3.97;;;;;;;14.29;34.23;93879.34;4920430;29;20035;-78
2021/01/24 08:31:30;;;;;;;7.82;3.35;;;;;;;14.15;34.00;93873.22;4937469;29;20035;-78
2021/01/24 08:33:56;;;;;;;11.10;4.45;;;;;;;14.19;35.72;93873.47;4928926;29;20046;-78
2021/01/24 08:36:23;;;;;;;7.53;4.00;;;;;;;14.37;34.72;93873.53;4919012;29;20028;-78
2021/01/24 08:38:49;;;;;;;10.30;5.47;;;;;;;14.32;36.28;93881.44;4919700;29;20039;-80
2021/01/24 08:41:15;;;;;;;17.95;7.13;;;;;;;14.17;37.34;93892.03;4942511;29;20055;-77
2021/01/24 08:43:40;;;;;;;10.25;6.00;;;;;;;13.93;38.62;93883.34;4915352;29;20495;-77
2021/01/24 08:46:21;;;;;;;15.23;6.35;;;;;;;13.77;37.78;93891.31;4925458;29;20049;-77
2021/01/24 08:49:07;;;;;;;8.60;4.90;;;;;;;13.82;37.41;93880.81;4941609;29;20070;-77
2021/01/24 08:51:41;;;;;;;12.48;6.38;;;;;;;13.98;37.30;93883.31;4943228;29;20055;-77
2021/01/24 08:54:18;;;;;;;15.77;6.65;;;;;;;14.17;39.00;93888.66;4942037;28;20039;-76
2021/01/24 08:56:43;;;;;;;7.28;4.75;;;;;;;14.35;36.64;93888.72;4933762;29;20507;-77
2021/01/24 08:59:26;;;;;;;7.30;4.38;;;;;;;14.52;35.33;93887.53;4924450;29;20038;-77
2021/01/24 09:01:56;;;;;;;14.95;6.25;;;;;;;14.57;35.32;93893.47;4917859;29;20488;-77
2021/01/24 09:04:25;;;;;;;22.45;6.25;;;;;;;14.59;34.74;93890.59;4931631;29;20027;-77
2021/01/24 09:07:08;;;;;;;16.90;6.60;;;;;;;14.54;34.76;93896.66;4950532;28;20055;-77
2021/01/24 09:09:34;;;;;;;;;;;;;;;14.40;34.80;93890.50;4940037;29;20026;-78
2021/01/24 09:11:59;;;;;;;9.45;5.88;;;;;;;14.35;34.70;93907.03;4951460;29;19926;-78
2021/01/24 09:14:25;;;;;;;19.63;8.90;;;;;;;14.28;34.90;93911.00;4933157;29;20036;-79
2021/01/24 09:17:04;;;;;;;7.05;4.25;;;;;;;14.16;34.88;93911.41;4929164;29;20089;-78
2021/01/24 09:19:30;;;;;;;12.95;2.90;;;;;;;14.06;34.58;93906.25;4931368;29;20027;-77
2021/01/24 09:21:58;;;;;;;4.18;2.33;;;;;;;14.10;34.51;93907.25;4929368;29;20039;-78
2021/01/24 09:24:24;;;;;;;2.42;1.95;;;;;;;14.02;34.60;93894.78;4930677;29;20074;-78
2021/01/24 09:26:49;;;;;;;2.42;2.20;;;;;;;14.00;34.16;93896.91;4931012;29;20055;-78
2021/01/24 09:29:35;;;;;;;8.40;2.30;;;;;;;13.88;33.70;93914.78;4943395;29;20168;-79
2021/01/24 09:32:00;;;;;;;5.63;1.80;;;;;;;13.74;33.98;93910.16;4947244;29;20484;-78
2021/01/24 09:34:27;;;;;;;4.90;1.80;;;;;;;13.56;33.31;93886.53;4948193;29;20042;-80
2021/01/24 09:36:53;;;;;;;3.08;1.85;;;;;;;13.25;35.41;93883.34;4928719;29;20577;-79
2021/01/24 09:39:18;;;;;;;2.63;1.83;;;;;;;13.14;35.64;93888.59;4924164;29;20059;-76
2021/01/24 09:41:44;;;;;;;6.25;2.20;;;;;;;13.13;35.23;93878.41;4943668;29;20038;-77
2021/01/24 09:44:09;;;;;;;3.53;2.80;;;;;;;13.14;35.96;93872.13;4926038;29;20050;-77
2021/01/24 09:46:35;;;;;;;5.78;2.42;;;;;;;13.06;36.84;93877.94;4926924;29;20042;-76
2021/01/24 09:49:01;;;;;;;14.77;2.70;;;;;;;13.02;36.38;93880.31;4926694;29;20031;-77
2021/01/24 09:51:26;;;;;;;5.63;2.58;;;;;;;12.90;35.23;93882.47;4942907;29;20411;-76
2021/01/24 09:53:52;;;;;;;8.15;2.05;;;;;;;12.94;35.09;93873.03;4925267;29;20357;-75
2021/01/24 09:56:18;;;;;;;2.38;1.73;;;;;;;13.06;35.41;93863.06;4941755;29;20126;-75
2021/01/24 09:58:44;;;;;;;9.00;4.70;;;;;;;13.26;35.86;93861.41;4927376;29;20043;-77
2021/01/24 10:01:09;;;;;;;14.75;6.20;;;;;;;13.54;36.12;93860.69;4910686;29;20075;-76
2021/01/24 10:03:35;;;;;;;10.02;4.72;;;;;;;13.68;34.39;93853.78;4941930;28;20055;-76
2021/01/24 10:06:01;;;;;;;8.50;4.07;;;;;;;13.75;33.80;93864.69;4927612;29;20087;-76
2021/01/24 10:08:26;;;;;;;11.07;6.53;;;;;;;13.86;33.17;93838.50;4944947;29;20031;-76
2021/01/24 10:10:55;;;;;;;5.72;3.50;;;;;;;13.82;33.20;93839.00;4944916;29;20094;-76
2021/01/24 10:13:20;;;;;;;2.53;2.22;;;;;;;13.67;32.65;93820.09;4949972;29;20039;-76
2021/01/24 10:15:49;;;;;;;6.47;3.92;;;;;;;13.67;33.25;93841.78;4945243;29;20031;-77
2021/01/24 10:18:15;;;;;;;27.85;10.20;;;;;;;13.66;33.93;93836.81;4946272;29;20027;-76
2021/01/24 10:20:43;;;;;;;25.20;11.73;;;;;;;13.59;34.78;93844.97;4945582;29;20113;-76
2021/01/24 10:23:08;;;;;;;18.63;6.00;;;;;;;13.60;33.61;93833.47;4944305;29;20031;-76
2021/01/24 10:25:36;;;;;;;26.10;10.75;;;;;;;13.60;34.80;93820.41;4927930;29;20047;-77
2021/01/24 10:28:02;;;;;;;17.90;9.45;;;;;;;13.41;34.21;93814.31;4928111;29;20024;-76
2021/01/24 10:30:28;;;;;;;25.33;11.48;;;;;;;13.37;34.82;93815.91;4927595;29;20422;-78
2021/01/24 10:32:53;;;;;;;8.68;3.75;;;;;;;13.46;34.12;93814.25;4943949;29;20047;-78
2021/01/24 10:35:19;;;;;;;24.17;8.55;;;;;;;13.39;33.47;93803.34;4928115;29;20050;-77
2021/01/24 10:37:44;;;;;;;24.35;8.63;;;;;;;13.41;33.05;93819.53;4927834;29;20126;-77
2021/01/24 10:40:13;;;;;;;4.32;1.83;;;;;;;13.48;31.75;93812.16;4914726;29;20035;-79
2021/01/24 10:42:39;;;;;;;3.17;2.78;;;;;;;13.50;32.69;93808.22;4929435;29;20027;-78
2021/01/24 10:45:06;;;;;;;12.02;5.13;;;;;;;13.48;32.90;93817.38;4947187;29;20043;-81
2021/01/24 10:47:31;;;;;;;7.07;3.20;;;;;;;13.48;32.72;93807.69;4949030;29;20062;-77
2021/01/24 10:49:56;;;;;;;9.48;4.20;;;;;;;13.48;33.44;93806.91;4948035;29;20028;-78
2021/01/24 10:52:50;;;;;;;8.95;5.10;;;;;;;13.31;33.33;93801.31;4918321;29;20035;-78
2021/01/24 10:55:18;;;;;;;18.42;6.82;;;;;;;13.07;34.85;93809.81;4941569;29;20054;-80
2021/01/24 10:57:44;;;;;;;16.05;7.85;;;;;;;13.16;34.81;93810.00;4944118;29;20043;-77
2021/01/24 11:00:37;;;;;;;18.70;9.55;;;;;;;13.19;35.96;93810.28;4919355;29;20038;-78
2021/01/24 11:03:29;;;;;;;;;;;;;;;13.25;34.45;93803.19;4929584;29;20043;-76
2021/01/24 11:05:55;;;;;;;25.08;9.10;;;;;;;13.29;34.74;93803.41;4939585;29;19923;-76
2021/01/24 11:08:20;;;;;;;14.02;6.00;;;;;;;13.15;35.22;93777.91;4912168;29;20567;-77
2021/01/24 11:10:46;;;;;;;9.73;3.88;;;;;;;13.05;35.62;93796.25;4925795;29;20039;-77
2021/01/24 11:13:17;;;;;;;14.95;2.92;;;;;;;13.06;35.46;93800.44;4943132;29;20044;-77
2021/01/24 11:15:46;;;;;;;5.43;3.20;;;;;;;13.00;35.96;93779.84;4942553;28;20031;-80
2021/01/24 11:18:11;;;;;;;6.22;3.05;;;;;;;12.88;35.66;93783.59;4928241;29;20519;-78
2021/01/24 11:20:37;;;;;;;20.33;7.78;;;;;;;12.76;36.62;93784.97;4926887;29;20088;-78
2021/01/24 11:23:02;;;;;;;7.10;4.22;;;;;;;12.69;36.29;93779.25;4943474;29;20124;-78
2021/01/24 11:25:28;;;;;;;9.85;4.60;;;;;;;12.64;37.13;93795.72;4941691;29;20039;-77
2021/01/24 11:27:56;;;;;;;9.75;4.88;;;;;;;12.70;36.32;93797.25;4943247;29;20031;-77
2021/01/24 11:30:22;;;;;;;6.57;3.47;;;;;;;12.77;36.65;93794.34;4926541;29;20086;-78
2021/01/24 11:32:47;;;;;;;8.57;2.95;;;;;;;12.79;36.30;93794.84;4925052;29;20054;-77
2021/01/24 11:35:15;;;;;;;7.47;2.90;;;;;;;12.66;36.19;93783.16;4926271;29;20020;-77
2021/01/24 11:37:42;;;;;;;11.98;4.90;;;;;;;12.57;36.55;93776.97;4943455;29;20031;-77
2021/01/24 11:40:08;;;;;;;13.38;6.30;;;;;;;12.44;36.71;93806.25;4927280;29;20053;-78
2021/01/24 11:42:34;;;;;;;9.55;3.50;;;;;;;12.33;37.28;93790.63;4947815;23;20190;-77
2021/01/24 11:45:12;;;;;;;17.98;7.30;;;;;;;12.41;37.49;93797.13;4924067;29;20088;-77
2021/01/24 11:47:40;;;;;;;12.30;4.32;;;;;;;12.52;36.42;93798.63;4949816;23;20041;-77
2021/01/24 11:50:06;;;;;;;1.70;1.60;;;;;;;12.66;35.65;93795.44;4954107;28;20054;-77
2021/01/24 11:52:31;;;;;;;2.28;1.30;;;;;;;12.74;35.17;93792.28;4963760;28;20419;-77
2021/01/24 11:54:57;;;;;;;1.33;1.17;;;;;;;12.88;34.71;93793.25;4935196;29;20031;-77
2021/01/24 11:57:22;;;;;;;8.48;1.85;;;;;;;13.04;35.30;93799.16;4934237;29;20031;-77
2021/01/24 11:59:49;;;;;;;5.85;2.63;;;;;;;13.21;34.84;93791.75;4950865;29;20042;-81
2021/01/24 12:02:17;;;;;;;5.97;2.38;;;;;;;13.27;34.82;93787.25;4907050;29;20043;-81
2021/01/24 12:04:43;;;;;;;2.28;1.50;;;;;;;13.29;35.02;93785.16;4908785;29;20094;-81
2021/01/24 12:07:08;;;;;;;16.10;5.68;;;;;;;13.36;35.37;93783.03;4954171;23;20403;-81
2021/01/24 12:09:33;;;;;;;18.80;7.75;;;;;;;13.39;36.03;93783.25;4965135;28;20046;-81
2021/01/24 12:11:59;;;;;;;6.75;3.85;;;;;;;13.42;35.99;93768.84;4948506;28;20035;-81